createdAt,value
2022-10-18T00:00:43.609Z,65.74
2022-10-18T00:01:43.603Z,64.61
2022-10-18T00:02:44.591Z,64.29
2022-10-18T00:04:43.580Z,63.81
2022-10-18T00:05:43.555Z,63.16
2022-10-18T00:06:43.711Z,63.16
2022-10-18T00:07:43.539Z,63.49
2022-10-18T00:08:43.524Z,63.00
2022-10-18T00:09:43.527Z,63.65
2022-10-18T00:10:43.504Z,63.97
2022-10-18T00:11:43.493Z,62.68
2022-10-18T00:12:43.564Z,63.00
2022-10-18T00:13:43.478Z,65.74
2022-10-18T00:14:43.473Z,62.36
2022-10-18T00:15:43.458Z,65.26
2022-10-18T00:16:43.445Z,65.74
2022-10-18T00:17:43.434Z,63.65
2022-10-18T00:18:43.440Z,64.13
2022-10-18T00:19:43.415Z,66.55
2022-10-18T00:20:43.406Z,61.07
2022-10-18T00:22:43.385Z,63.97
2022-10-18T00:23:43.387Z,63.33
2022-10-18T00:24:43.365Z,59.46
2022-10-18T00:25:43.354Z,63.65
2022-10-18T00:26:43.346Z,63.33
2022-10-18T00:27:43.332Z,62.52
2022-10-18T00:28:43.386Z,63.65
2022-10-18T00:29:43.316Z,64.78
2022-10-18T00:30:43.340Z,66.06
2022-10-18T00:31:43.298Z,62.68
2022-10-18T00:32:43.289Z,66.06
2022-10-18T00:33:43.292Z,65.10
2022-10-18T00:34:43.270Z,65.58
2022-10-18T00:35:43.262Z,65.26
2022-10-18T00:36:43.247Z,65.42
2022-10-18T00:37:43.263Z,64.13
2022-10-18T00:38:43.238Z,62.52
2022-10-18T00:39:43.256Z,62.68
2022-10-18T00:40:43.209Z,63.16
2022-10-18T00:41:43.200Z,66.55
2022-10-18T00:42:43.187Z,63.97
2022-10-18T00:43:43.189Z,65.74
2022-10-18T00:44:43.171Z,62.52
2022-10-18T00:45:43.161Z,64.45
2022-10-18T00:46:43.155Z,66.23
2022-10-18T00:47:43.141Z,64.78
2022-10-18T00:48:43.161Z,65.26
2022-10-18T00:49:43.114Z,69.61
2022-10-18T00:50:43.107Z,67.03
2022-10-18T00:51:43.097Z,66.23
2022-10-18T00:52:43.089Z,63.33
2022-10-18T00:53:43.089Z,63.97
2022-10-18T00:54:43.066Z,63.81
2022-10-18T00:55:43.056Z,65.58
2022-10-18T00:56:43.046Z,62.52
2022-10-18T00:57:43.119Z,62.84
2022-10-18T00:58:43.039Z,63.97
2022-10-18T00:59:43.021Z,61.87
2022-10-18T01:00:43.009Z,62.84
2022-10-18T01:01:43.287Z,64.94
2022-10-18T01:02:42.989Z,63.33
2022-10-18T01:03:42.984Z,64.78
2022-10-18T01:04:53.152Z,63.16
2022-10-18T01:05:42.959Z,60.10
2022-10-18T01:06:43.031Z,62.20
2022-10-18T01:07:42.946Z,61.55
2022-10-18T01:08:42.939Z,63.49
2022-10-18T01:09:42.914Z,62.20
2022-10-18T01:10:42.909Z,64.45
2022-10-18T01:11:42.897Z,60.42
2022-10-18T01:12:42.890Z,65.26
2022-10-18T01:13:42.889Z,65.58
2022-10-18T01:14:42.867Z,62.20
2022-10-18T01:15:42.856Z,62.36
2022-10-18T01:16:42.850Z,58.01
2022-10-18T01:17:42.845Z,61.71
2022-10-18T01:18:42.841Z,65.58
2022-10-18T01:19:42.823Z,66.39
2022-10-18T01:20:42.812Z,65.10
2022-10-18T01:21:42.803Z,65.90
2022-10-18T01:22:42.797Z,63.81
2022-10-18T01:23:42.797Z,59.14
2022-10-18T01:24:42.771Z,63.16
2022-10-18T01:25:42.755Z,63.16
2022-10-18T01:26:43.751Z,63.33
2022-10-18T01:27:42.739Z,65.26
2022-10-18T01:28:42.796Z,63.97
2022-10-18T01:29:42.725Z,63.16
2022-10-18T01:30:42.717Z,63.33
2022-10-18T01:31:42.704Z,65.58
2022-10-18T01:32:42.747Z,63.33
2022-10-18T01:33:42.705Z,64.13
2022-10-18T01:34:42.678Z,62.20
2022-10-18T01:35:42.666Z,66.06
2022-10-18T01:36:42.656Z,63.16
2022-10-18T01:37:42.639Z,64.94
2022-10-18T01:38:42.644Z,63.49
2022-10-18T01:39:42.624Z,63.49
2022-10-18T01:40:42.611Z,63.65
2022-10-18T01:41:42.603Z,61.55
2022-10-18T01:42:42.594Z,63.65
2022-10-18T01:43:42.597Z,61.23
2022-10-18T01:44:42.575Z,59.62
2022-10-18T01:45:42.562Z,63.16
2022-10-18T01:46:42.555Z,62.20
2022-10-18T01:47:42.543Z,62.68
2022-10-18T01:48:42.545Z,63.00
2022-10-18T01:49:42.522Z,62.04
2022-10-18T01:50:42.513Z,61.55
2022-10-18T01:51:42.507Z,61.07
2022-10-18T01:52:42.495Z,60.91
2022-10-18T01:53:42.493Z,65.58
2022-10-18T01:54:42.515Z,63.16
2022-10-18T01:55:42.466Z,61.39
2022-10-18T01:56:42.455Z,61.71
2022-10-18T01:57:42.444Z,60.59
2022-10-18T01:58:42.445Z,62.52
2022-10-18T01:59:42.426Z,59.78
2022-10-18T02:00:42.413Z,58.17
2022-10-18T02:01:42.419Z,62.36
2022-10-18T02:02:42.398Z,60.26
2022-10-18T02:03:42.392Z,60.59
2022-10-18T02:04:42.373Z,58.81
2022-10-18T02:05:42.454Z,61.23
2022-10-18T02:06:42.352Z,62.52
2022-10-18T02:07:42.341Z,61.23
2022-10-18T02:08:42.411Z,65.58
2022-10-18T02:09:43.320Z,64.94
2022-10-18T02:10:42.315Z,66.71
2022-10-18T02:11:42.302Z,66.23
2022-10-18T02:12:42.297Z,65.42
2022-10-18T02:13:42.367Z,69.93
2022-10-18T02:14:42.273Z,71.70
2022-10-18T02:15:42.262Z,72.19
2022-10-18T02:16:42.253Z,73.96
2022-10-18T02:17:42.248Z,71.22
2022-10-18T02:18:42.261Z,70.25
2022-10-18T02:19:42.225Z,72.67
2022-10-18T02:20:42.217Z,70.58
2022-10-18T02:21:42.207Z,71.22
2022-10-18T02:22:42.197Z,69.93
2022-10-18T02:23:42.199Z,67.35
2022-10-18T02:24:42.175Z,67.68
2022-10-18T02:25:42.165Z,67.84
2022-10-18T02:26:42.156Z,68.00
2022-10-18T02:27:42.149Z,68.80
2022-10-18T02:28:42.144Z,69.13
2022-10-18T02:29:42.125Z,67.35
2022-10-18T02:30:42.115Z,69.93
2022-10-18T02:31:42.119Z,69.29
2022-10-18T02:32:42.095Z,70.74
2022-10-18T02:33:42.098Z,70.42
2022-10-18T02:34:42.078Z,69.93
2022-10-18T02:35:42.094Z,69.61
2022-10-18T02:36:42.059Z,67.68
2022-10-18T02:37:42.050Z,69.13
2022-10-18T02:38:42.046Z,73.32
2022-10-18T02:39:42.024Z,69.61
2022-10-18T02:40:42.019Z,69.29
2022-10-18T02:41:42.008Z,69.93
2022-10-18T02:42:42.001Z,72.03
2022-10-18T02:43:41.998Z,69.61
2022-10-18T02:44:41.977Z,70.58
2022-10-18T02:45:41.971Z,70.90
2022-10-18T02:46:41.959Z,73.80
2022-10-18T02:47:41.950Z,72.67
2022-10-18T02:48:41.953Z,70.58
2022-10-18T02:49:41.930Z,71.70
2022-10-18T02:50:41.921Z,71.87
2022-10-18T02:51:41.908Z,71.38
2022-10-18T02:52:41.899Z,72.35
2022-10-18T02:53:41.903Z,72.83
2022-10-18T02:54:41.882Z,67.35
2022-10-18T02:55:41.882Z,71.87
2022-10-18T02:56:41.891Z,71.06
2022-10-18T02:57:41.852Z,70.74
2022-10-18T02:58:41.854Z,71.87
2022-10-18T02:59:41.828Z,68.80
2022-10-18T03:00:41.850Z,68.64
2022-10-18T03:01:41.839Z,65.90
2022-10-18T03:02:41.802Z,68.32
2022-10-18T03:03:41.807Z,67.19
2022-10-18T03:04:41.785Z,68.00
2022-10-18T03:05:41.772Z,66.55
2022-10-18T03:06:41.759Z,69.45
2022-10-18T03:07:41.749Z,67.19
2022-10-18T03:08:41.748Z,68.96
2022-10-18T03:09:42.036Z,66.39
2022-10-18T03:10:41.721Z,64.94
2022-10-18T03:11:41.712Z,66.39
2022-10-18T03:12:41.700Z,66.71
2022-10-18T03:13:41.707Z,68.96
2022-10-18T03:14:41.673Z,66.55
2022-10-18T03:15:42.672Z,67.03
2022-10-18T03:16:41.661Z,67.84
2022-10-18T03:17:41.653Z,66.06
2022-10-18T03:18:41.655Z,68.80
2022-10-18T03:19:41.635Z,67.35
2022-10-18T03:20:41.666Z,65.10
2022-10-18T03:21:41.612Z,67.03
2022-10-18T03:22:41.602Z,67.19
2022-10-18T03:23:41.603Z,67.19
2022-10-18T03:24:41.582Z,67.51
2022-10-18T03:25:44.215Z,65.42
2022-10-18T03:26:41.560Z,68.80
2022-10-18T03:27:41.553Z,68.00
2022-10-18T03:28:41.576Z,69.45
2022-10-18T03:29:41.528Z,66.06
2022-10-18T03:30:41.517Z,67.51
2022-10-18T03:31:41.511Z,68.48
2022-10-18T03:32:41.502Z,67.03
2022-10-18T03:33:41.606Z,69.77
2022-10-18T03:34:41.484Z,65.42
2022-10-18T03:35:41.475Z,67.03
2022-10-18T03:36:41.462Z,67.35
2022-10-18T03:37:41.449Z,65.74
2022-10-18T03:38:41.451Z,65.90
2022-10-18T03:39:41.429Z,68.00
2022-10-18T03:40:41.420Z,67.84
2022-10-18T03:41:41.414Z,65.90
2022-10-18T03:42:41.414Z,69.29
2022-10-18T03:43:41.405Z,68.16
2022-10-18T03:44:41.382Z,72.19
2022-10-18T03:45:41.372Z,71.06
2022-10-18T03:46:41.364Z,71.22
2022-10-18T03:47:41.355Z,71.38
2022-10-18T03:48:41.353Z,70.90
2022-10-18T03:49:41.339Z,71.38
2022-10-18T03:50:41.320Z,71.54
2022-10-18T03:51:41.309Z,70.09
2022-10-18T03:52:41.302Z,67.68
2022-10-18T03:53:41.300Z,67.19
2022-10-18T03:54:41.283Z,67.35
2022-10-18T03:55:41.270Z,66.71
2022-10-18T03:56:41.258Z,66.55
2022-10-18T03:57:41.253Z,65.42
2022-10-18T03:58:41.255Z,65.10
2022-10-18T03:59:41.273Z,67.19
2022-10-18T04:00:41.222Z,67.35
2022-10-18T04:01:41.250Z,65.74
2022-10-18T04:02:41.206Z,69.45
2022-10-18T04:03:41.207Z,69.93
2022-10-18T04:04:41.204Z,69.61
2022-10-18T04:05:41.178Z,69.13
2022-10-18T04:06:41.162Z,68.64
2022-10-18T04:07:41.170Z,67.03
2022-10-18T04:08:41.166Z,69.77
2022-10-18T04:09:41.132Z,68.64
2022-10-18T04:10:41.126Z,67.84
2022-10-18T04:11:41.114Z,70.74
2022-10-18T04:12:41.105Z,72.99
2022-10-18T04:13:41.112Z,73.64
2022-10-18T04:14:41.090Z,71.06
2022-10-18T04:15:41.078Z,71.38
2022-10-18T04:16:41.069Z,70.09
2022-10-18T04:17:41.058Z,72.83
2022-10-18T04:18:41.057Z,70.90
2022-10-18T04:19:41.035Z,71.87
2022-10-18T04:20:41.034Z,69.45
2022-10-18T04:21:41.016Z,70.74
2022-10-18T04:22:41.009Z,69.29
2022-10-18T04:23:41.013Z,68.32
2022-10-18T04:24:40.989Z,68.00
2022-10-18T04:25:41.013Z,67.35
2022-10-18T04:26:40.972Z,66.87
2022-10-18T04:27:40.965Z,66.39
2022-10-18T04:28:41.011Z,66.23
2022-10-18T04:29:40.943Z,65.74
2022-10-18T04:30:40.935Z,68.16
2022-10-18T04:31:40.948Z,64.78
2022-10-18T04:32:40.909Z,67.51
2022-10-18T04:33:40.911Z,66.55
2022-10-18T04:34:40.892Z,67.19
2022-10-18T04:35:40.889Z,68.80
2022-10-18T04:36:40.870Z,66.39
2022-10-18T04:37:40.862Z,66.39
2022-10-18T04:38:40.863Z,67.51
2022-10-18T04:39:40.843Z,68.96
2022-10-18T04:40:40.828Z,69.61
2022-10-18T04:41:40.822Z,69.13
2022-10-18T04:42:40.810Z,71.06
2022-10-18T04:43:40.835Z,69.13
2022-10-18T04:44:40.787Z,68.00
2022-10-18T04:45:40.777Z,67.51
2022-10-18T04:46:40.765Z,66.39
2022-10-18T04:47:40.759Z,68.48
2022-10-18T04:48:40.763Z,69.13
2022-10-18T04:49:40.734Z,68.48
2022-10-18T04:50:40.727Z,68.64
2022-10-18T04:51:40.717Z,68.64
2022-10-18T04:52:40.735Z,67.68
2022-10-18T04:53:40.705Z,68.64
2022-10-18T04:54:40.683Z,71.06
2022-10-18T04:55:40.678Z,68.96
2022-10-18T04:56:40.664Z,70.74
2022-10-18T04:57:40.657Z,66.23
2022-10-18T04:58:40.653Z,70.09
2022-10-18T04:59:40.636Z,66.87
2022-10-18T05:00:40.622Z,67.19
2022-10-18T05:01:40.691Z,67.19
2022-10-18T05:02:40.599Z,69.29
2022-10-18T05:03:40.602Z,68.48
2022-10-18T05:04:40.582Z,68.48
2022-10-18T05:06:00.140Z,70.42
2022-10-18T05:06:42.565Z,69.45
2022-10-18T05:07:40.555Z,70.09
2022-10-18T05:08:40.553Z,68.80
2022-10-18T05:09:40.536Z,69.61
2022-10-18T05:10:40.520Z,69.61
2022-10-18T05:11:40.511Z,67.51
2022-10-18T05:12:40.502Z,67.03
2022-10-18T05:13:40.504Z,67.35
2022-10-18T05:14:40.482Z,69.61
2022-10-18T05:15:40.473Z,68.96
2022-10-18T05:16:40.482Z,68.48
2022-10-18T05:17:40.444Z,67.84
2022-10-18T05:18:40.452Z,66.71
2022-10-18T05:19:40.430Z,66.87
2022-10-18T05:20:40.445Z,66.87
2022-10-18T05:21:40.412Z,66.87
2022-10-18T05:22:40.396Z,67.68
2022-10-18T05:23:40.405Z,65.74
2022-10-18T05:24:40.388Z,67.03
2022-10-18T05:25:40.384Z,66.55
2022-10-18T05:26:40.366Z,67.35
2022-10-18T05:27:40.354Z,64.45
2022-10-18T05:28:41.256Z,67.19
2022-10-18T05:29:41.336Z,66.23
2022-10-18T05:30:40.326Z,67.03
2022-10-18T05:31:40.313Z,67.68
2022-10-18T05:32:40.305Z,66.39
2022-10-18T05:33:40.302Z,66.55
2022-10-18T05:34:40.289Z,67.03
2022-10-18T05:35:40.278Z,65.90
2022-10-18T05:36:40.267Z,65.90
2022-10-18T05:37:40.255Z,65.74
2022-10-18T05:38:40.280Z,66.06
2022-10-18T05:39:40.240Z,65.26
2022-10-18T05:40:40.225Z,68.00
2022-10-18T05:41:40.215Z,66.55
2022-10-18T05:42:40.253Z,67.84
2022-10-18T05:43:40.195Z,64.78
2022-10-18T05:44:40.196Z,65.58
2022-10-18T05:45:40.184Z,66.55
2022-10-18T05:46:40.161Z,65.10
2022-10-18T05:47:40.153Z,65.58
2022-10-18T05:48:40.134Z,62.84
2022-10-18T05:49:40.143Z,65.26
2022-10-18T05:50:40.475Z,65.42
2022-10-18T05:51:40.114Z,66.71
2022-10-18T05:52:40.104Z,67.19
2022-10-18T05:53:40.089Z,65.90
2022-10-18T05:54:40.088Z,68.48
2022-10-18T05:55:40.069Z,69.29
2022-10-18T05:56:40.135Z,69.61
2022-10-18T05:57:40.046Z,70.42
2022-10-18T05:58:40.038Z,68.32
2022-10-18T05:59:40.036Z,71.22
2022-10-18T06:00:40.021Z,68.64
2022-10-18T06:01:40.011Z,70.42
2022-10-18T06:02:40.029Z,68.64
2022-10-18T06:03:39.986Z,71.22
2022-10-18T06:04:39.997Z,69.45
2022-10-18T06:06:40.061Z,69.45
2022-10-18T06:07:39.943Z,68.96
2022-10-18T06:08:39.933Z,69.29
2022-10-18T06:09:39.936Z,69.29
2022-10-18T06:10:39.965Z,70.09
2022-10-18T06:11:39.908Z,68.96
2022-10-18T06:12:39.897Z,68.16
2022-10-18T06:13:39.890Z,68.80
2022-10-18T06:14:39.885Z,67.84
2022-10-18T06:15:39.868Z,67.51
2022-10-18T06:16:39.893Z,69.29
2022-10-18T06:17:39.851Z,69.45
2022-10-18T06:18:39.838Z,68.48
2022-10-18T06:19:39.834Z,67.84
2022-10-18T06:20:39.820Z,68.48
2022-10-18T06:21:39.801Z,68.32
2022-10-18T06:22:39.791Z,67.51
2022-10-18T06:23:39.786Z,66.23
2022-10-18T06:24:39.783Z,68.32
2022-10-18T06:25:39.763Z,67.03
2022-10-18T06:26:39.753Z,67.03
2022-10-18T06:27:39.744Z,67.84
2022-10-18T06:28:39.762Z,71.54
2022-10-18T06:29:39.742Z,71.06
2022-10-18T06:30:39.711Z,70.42
2022-10-18T06:31:39.707Z,68.80
2022-10-18T06:32:39.690Z,67.03
2022-10-18T06:33:39.686Z,66.71
2022-10-18T06:34:39.680Z,66.06
2022-10-18T06:35:39.663Z,65.90
2022-10-18T06:36:39.681Z,66.06
2022-10-18T06:37:39.705Z,65.26
2022-10-18T06:38:39.666Z,63.97
2022-10-18T06:39:39.626Z,66.06
2022-10-18T06:40:39.612Z,64.94
2022-10-18T06:41:39.595Z,65.42
2022-10-18T06:42:39.595Z,64.29
2022-10-18T06:43:39.576Z,65.58
2022-10-18T06:44:39.582Z,65.90
2022-10-18T06:45:39.555Z,66.55
2022-10-18T06:46:39.544Z,64.13
2022-10-18T06:47:39.537Z,65.10
2022-10-18T06:48:39.532Z,67.03
2022-10-18T06:49:39.513Z,65.90
2022-10-18T06:50:39.501Z,65.42
2022-10-18T06:51:39.485Z,66.71
2022-10-18T06:52:40.485Z,66.55
2022-10-18T06:53:44.183Z,66.71
2022-10-18T06:54:41.456Z,66.55
2022-10-18T06:55:39.451Z,65.42
2022-10-18T06:56:39.434Z,65.58
2022-10-18T06:57:39.431Z,67.03
2022-10-18T06:58:39.434Z,65.90
2022-10-18T06:59:39.494Z,65.42
2022-10-18T07:00:39.397Z,65.26
2022-10-18T07:01:39.419Z,64.61
2022-10-18T07:02:39.375Z,65.42
2022-10-18T07:03:39.376Z,66.23
2022-10-18T07:04:39.375Z,64.94
2022-10-18T07:06:05.258Z,64.13
2022-10-18T07:06:39.330Z,63.33
2022-10-18T07:07:39.322Z,63.97
2022-10-18T07:08:39.329Z,63.16
2022-10-18T07:09:39.307Z,61.55
2022-10-18T07:10:39.294Z,63.16
2022-10-18T07:11:39.288Z,62.52
2022-10-18T07:12:39.279Z,62.84
2022-10-18T07:13:39.274Z,61.71
2022-10-18T07:14:39.252Z,62.36
2022-10-18T07:15:39.254Z,61.55
2022-10-18T07:16:39.240Z,62.52
2022-10-18T07:17:39.222Z,61.55
2022-10-18T07:18:39.223Z,61.55
2022-10-18T07:19:39.206Z,62.68
2022-10-18T07:20:39.187Z,60.75
2022-10-18T07:21:39.184Z,60.91
2022-10-18T07:22:39.183Z,62.20
2022-10-18T07:23:39.173Z,59.14
2022-10-18T07:24:39.152Z,60.59
2022-10-18T07:25:39.137Z,61.07
2022-10-18T07:26:39.128Z,60.42
2022-10-18T07:27:39.116Z,59.30
2022-10-18T07:28:39.152Z,58.33
2022-10-18T07:29:39.098Z,58.81
2022-10-18T07:30:39.083Z,58.33
2022-10-18T07:31:39.100Z,58.97
2022-10-18T07:32:39.072Z,57.69
2022-10-18T07:33:39.068Z,57.52
2022-10-18T07:34:39.044Z,56.07
2022-10-18T07:35:39.037Z,58.33
2022-10-18T07:36:39.023Z,58.01
2022-10-18T07:37:39.014Z,58.33
2022-10-18T07:38:39.001Z,57.85
2022-10-18T07:39:39.002Z,58.49
2022-10-18T07:40:38.984Z,56.24
2022-10-18T07:41:38.972Z,53.82
2022-10-18T07:42:39.026Z,54.62
2022-10-18T07:43:38.977Z,57.04
2022-10-18T07:44:38.956Z,57.52
2022-10-18T07:45:38.938Z,56.72
2022-10-18T07:46:38.923Z,58.01
2022-10-18T07:47:39.279Z,59.62
2022-10-18T07:48:38.899Z,57.36
2022-10-18T07:49:38.904Z,70.74
2022-10-18T07:50:38.882Z,69.45
2022-10-18T07:51:38.870Z,56.88
2022-10-18T07:52:38.861Z,57.69
2022-10-18T07:53:38.854Z,58.17
2022-10-18T07:54:38.914Z,58.17
2022-10-18T07:55:38.832Z,59.30
2022-10-18T07:56:38.822Z,59.14
2022-10-18T07:57:38.810Z,61.23
2022-10-18T07:58:38.801Z,62.36
2022-10-18T07:59:38.807Z,61.71
2022-10-18T08:00:38.793Z,62.20
2022-10-18T08:01:38.801Z,62.20
2022-10-18T08:02:38.768Z,60.75
2022-10-18T08:03:38.754Z,65.74
2022-10-18T08:04:38.752Z,62.68
2022-10-18T08:05:38.734Z,61.55
2022-10-18T08:06:38.722Z,62.68
2022-10-18T08:07:38.715Z,62.68
2022-10-18T08:08:38.704Z,62.84
2022-10-18T08:09:38.710Z,62.04
2022-10-18T08:10:38.702Z,62.68
2022-10-18T08:11:38.670Z,63.65
2022-10-18T08:12:38.665Z,62.84
2022-10-18T08:13:38.652Z,62.84
2022-10-18T08:14:38.650Z,61.87
2022-10-18T08:15:38.631Z,61.55
2022-10-18T08:16:38.626Z,62.68
2022-10-18T08:17:38.612Z,64.13
2022-10-18T08:18:38.599Z,62.84
2022-10-18T08:19:44.616Z,59.78
2022-10-18T08:20:39.575Z,62.84
2022-10-18T08:21:38.568Z,63.00
2022-10-18T08:22:38.558Z,63.00
2022-10-18T08:23:38.547Z,63.49
2022-10-18T08:24:38.548Z,63.16
2022-10-18T08:25:38.537Z,62.68
2022-10-18T08:26:38.523Z,63.16
2022-10-18T08:27:38.503Z,64.29
2022-10-18T08:28:38.528Z,64.13
2022-10-18T08:29:38.534Z,64.78
2022-10-18T08:30:38.490Z,63.49
2022-10-18T08:31:38.464Z,63.00
2022-10-18T08:32:38.453Z,63.97
2022-10-18T08:33:38.446Z,64.78
2022-10-18T08:35:39.422Z,63.81
2022-10-18T08:36:38.412Z,65.74
2022-10-18T08:37:38.399Z,62.52
2022-10-18T08:38:38.388Z,63.33
2022-10-18T08:39:38.396Z,62.84
2022-10-18T08:40:38.373Z,63.49
2022-10-18T08:41:38.386Z,64.45
2022-10-18T08:42:38.351Z,64.61
2022-10-18T08:43:38.364Z,65.58
2022-10-18T08:44:38.335Z,63.16
2022-10-18T08:45:42.522Z,64.29
2022-10-18T08:46:39.308Z,64.78
2022-10-18T08:47:38.303Z,64.61
2022-10-18T08:48:38.301Z,62.68
2022-10-18T08:49:38.389Z,63.00
2022-10-18T08:50:38.269Z,63.97
2022-10-18T08:51:38.262Z,62.68
2022-10-18T08:52:38.246Z,62.20
2022-10-18T08:53:39.962Z,62.52
2022-10-18T08:54:38.229Z,61.55
2022-10-18T08:55:38.219Z,62.68
2022-10-18T08:56:38.211Z,62.20
2022-10-18T08:57:38.199Z,61.23
2022-10-18T08:58:38.199Z,62.36
2022-10-18T08:59:38.180Z,62.36
2022-10-18T09:00:38.172Z,62.52
2022-10-18T09:01:38.238Z,60.91
2022-10-18T09:02:38.157Z,62.68
2022-10-18T09:03:38.235Z,60.91
2022-10-18T09:04:38.130Z,59.94
2022-10-18T09:05:38.119Z,61.87
2022-10-18T09:06:38.111Z,60.42
2022-10-18T09:07:38.097Z,60.10
2022-10-18T09:08:38.098Z,61.71
2022-10-18T09:09:38.086Z,60.59
2022-10-18T09:10:38.068Z,59.78
2022-10-18T09:11:38.068Z,61.07
2022-10-18T09:12:38.050Z,59.94
2022-10-18T09:13:38.061Z,60.26
2022-10-18T09:14:38.028Z,60.59
2022-10-18T09:15:38.018Z,60.26
2022-10-18T09:16:38.009Z,61.87
2022-10-18T09:17:38.000Z,58.49
2022-10-18T09:18:38.003Z,59.46
2022-10-18T09:19:37.978Z,58.81
2022-10-18T09:20:37.968Z,58.97
2022-10-18T09:21:37.960Z,59.14
2022-10-18T09:22:37.946Z,60.91
2022-10-18T09:23:37.944Z,62.20
2022-10-18T09:24:37.970Z,60.10
2022-10-18T09:25:37.917Z,59.94
2022-10-18T09:26:37.907Z,60.10
2022-10-18T09:27:37.894Z,61.55
2022-10-18T09:28:37.969Z,59.62
2022-10-18T09:29:37.896Z,61.55
2022-10-18T09:30:37.869Z,61.87
2022-10-18T09:31:37.857Z,61.55
2022-10-18T09:32:37.845Z,63.00
2022-10-18T09:33:37.836Z,61.39
2022-10-18T09:34:37.834Z,61.87
2022-10-18T09:35:37.817Z,60.75
2022-10-18T09:36:37.808Z,61.07
2022-10-18T09:37:37.794Z,61.07
2022-10-18T09:38:37.782Z,60.91
2022-10-18T09:39:37.787Z,61.23
2022-10-18T09:40:37.760Z,59.78
2022-10-18T09:41:37.752Z,62.68
2022-10-18T09:42:37.741Z,62.52
2022-10-18T09:43:37.732Z,61.39
2022-10-18T09:44:37.735Z,62.68
2022-10-18T09:45:37.714Z,62.20
2022-10-18T09:46:37.707Z,62.52
2022-10-18T09:47:37.708Z,62.36
2022-10-18T09:48:37.686Z,62.84
2022-10-18T09:49:37.693Z,63.16
2022-10-18T09:50:37.675Z,63.16
2022-10-18T09:51:37.659Z,62.20
2022-10-18T09:52:37.643Z,63.16
2022-10-18T09:53:37.635Z,63.16
2022-10-18T09:54:37.637Z,60.10
2022-10-18T09:55:37.615Z,63.49
2022-10-18T09:56:40.854Z,64.78
2022-10-18T09:57:37.591Z,63.16
2022-10-18T09:58:37.617Z,62.84
2022-10-18T09:59:37.581Z,63.16
2022-10-18T10:00:37.563Z,62.52
2022-10-18T10:01:37.556Z,61.71
2022-10-18T10:02:37.585Z,62.20
2022-10-18T10:03:37.535Z,63.16
2022-10-18T10:04:37.536Z,64.94
2022-10-18T10:05:37.515Z,62.20
2022-10-18T10:06:37.504Z,62.68
2022-10-18T10:07:37.899Z,62.36
2022-10-18T10:08:37.485Z,61.07
2022-10-18T10:09:37.484Z,62.04
2022-10-18T10:10:38.463Z,62.68
2022-10-18T10:11:37.454Z,61.71
2022-10-18T10:12:37.452Z,61.71
2022-10-18T10:13:37.463Z,60.26
2022-10-18T10:14:37.428Z,61.39
2022-10-18T10:15:39.413Z,59.46
2022-10-18T10:16:37.407Z,60.91
2022-10-18T10:17:37.397Z,60.10
2022-10-18T10:18:37.394Z,60.26
2022-10-18T10:19:37.376Z,57.69
2022-10-18T10:20:37.364Z,61.23
2022-10-18T10:21:37.349Z,60.10
2022-10-18T10:22:37.364Z,58.65
2022-10-18T10:23:37.348Z,59.94
2022-10-18T10:24:37.325Z,57.36
2022-10-18T10:25:37.315Z,59.62
2022-10-18T10:26:37.306Z,58.65
2022-10-18T10:27:37.294Z,58.17
2022-10-18T10:28:37.431Z,58.01
2022-10-18T10:29:44.361Z,59.62
2022-10-18T10:30:39.269Z,58.97
2022-10-18T10:31:37.262Z,60.10
2022-10-18T10:32:37.276Z,59.62
2022-10-18T10:33:37.260Z,59.46
2022-10-18T10:34:39.830Z,59.14
2022-10-18T10:35:54.267Z,58.97
2022-10-18T10:36:39.207Z,60.59
2022-10-18T10:37:37.212Z,58.65
2022-10-18T10:38:37.200Z,61.07
2022-10-18T10:39:37.178Z,58.97
2022-10-18T10:40:37.169Z,60.42
2022-10-18T10:41:37.155Z,59.78
2022-10-18T10:42:37.150Z,59.30
2022-10-18T10:43:38.880Z,59.78
2022-10-18T10:44:38.128Z,59.30
2022-10-18T10:45:37.114Z,59.94
2022-10-18T10:46:37.107Z,59.62
2022-10-18T10:47:37.100Z,59.30
2022-10-18T10:48:37.102Z,58.81
2022-10-18T10:49:41.327Z,58.49
2022-10-18T10:50:39.408Z,58.01
2022-10-18T10:51:37.062Z,58.17
2022-10-18T10:52:37.489Z,58.01
2022-10-18T10:53:37.064Z,59.62
2022-10-18T10:54:37.034Z,63.33
2022-10-18T10:55:37.021Z,58.01
2022-10-18T10:56:37.014Z,61.23
2022-10-18T10:57:37.000Z,59.30
2022-10-18T10:58:37.004Z,60.42
2022-10-18T10:59:37.020Z,62.04
2022-10-18T11:00:36.972Z,57.85
2022-10-18T11:01:36.960Z,60.91
2022-10-18T11:02:36.947Z,58.17
2022-10-18T11:03:36.971Z,58.65
2022-10-18T11:04:36.932Z,57.69
2022-10-18T11:05:36.924Z,59.14
2022-10-18T11:06:36.914Z,59.14
2022-10-18T11:07:36.901Z,60.59
2022-10-18T11:08:36.948Z,60.59
2022-10-18T11:09:36.890Z,60.26
2022-10-18T11:10:36.874Z,57.36
2022-10-18T11:11:36.863Z,59.62
2022-10-18T11:12:36.852Z,58.01
2022-10-18T11:13:36.875Z,58.33
2022-10-18T11:14:36.834Z,58.01
2022-10-18T11:15:36.839Z,59.14
2022-10-18T11:16:36.822Z,62.36
2022-10-18T11:17:36.804Z,57.85
2022-10-18T11:18:36.822Z,59.78
2022-10-18T11:19:36.790Z,59.14
2022-10-18T11:20:36.781Z,58.49
2022-10-18T11:21:36.771Z,59.30
2022-10-18T11:22:36.760Z,60.10
2022-10-18T11:23:36.764Z,62.20
2022-10-18T11:24:36.739Z,61.07
2022-10-18T11:25:36.732Z,62.20
2022-10-18T11:26:40.984Z,61.07
2022-10-18T11:27:38.714Z,59.78
2022-10-18T11:28:36.767Z,58.01
2022-10-18T11:29:36.694Z,58.97
2022-10-18T11:30:36.686Z,59.94
2022-10-18T11:31:36.672Z,60.91
2022-10-18T11:32:36.664Z,61.87
2022-10-18T11:34:03.517Z,61.55
2022-10-18T11:34:38.656Z,60.59
2022-10-18T11:35:36.632Z,60.42
2022-10-18T11:36:36.905Z,60.26
2022-10-18T11:37:38.593Z,62.52
2022-10-18T11:38:37.601Z,62.84
2022-10-18T11:39:36.607Z,61.23
2022-10-18T11:40:36.582Z,62.04
2022-10-18T11:41:36.569Z,58.81
2022-10-18T11:42:39.783Z,59.62
2022-10-18T11:43:57.490Z,60.26
2022-10-18T11:44:38.558Z,58.97
2022-10-18T11:45:36.537Z,61.23
2022-10-18T11:46:36.525Z,58.17
2022-10-18T11:47:36.520Z,57.52
2022-10-18T11:48:36.507Z,60.91
2022-10-18T11:49:36.505Z,59.30
2022-10-18T11:50:36.487Z,62.68
2022-10-18T11:51:50.319Z,61.87
2022-10-18T11:52:38.470Z,62.20
2022-10-18T11:53:36.460Z,59.94
2022-10-18T11:54:36.519Z,60.59
2022-10-18T11:55:36.440Z,60.75
2022-10-18T11:56:36.434Z,62.20
2022-10-18T11:57:36.418Z,61.55
2022-10-18T11:58:36.456Z,61.71
2022-10-18T11:59:36.415Z,61.71
2022-10-18T12:00:36.391Z,62.20
2022-10-18T12:01:36.385Z,60.59
2022-10-18T12:02:36.644Z,60.91
2022-10-18T12:03:36.375Z,59.30
2022-10-18T12:04:40.915Z,59.14
2022-10-18T12:05:37.378Z,58.01
2022-10-18T12:06:36.338Z,60.26
2022-10-18T12:07:36.330Z,60.26
2022-10-18T12:08:36.319Z,60.42
2022-10-18T12:09:36.386Z,62.84
2022-10-18T12:10:52.577Z,63.00
2022-10-18T12:11:38.290Z,61.87
2022-10-18T12:12:36.275Z,60.42
2022-10-18T12:13:36.273Z,61.87
2022-10-18T12:14:36.277Z,60.59
2022-10-18T12:15:36.254Z,61.23
2022-10-18T12:16:51.089Z,62.04
2022-10-18T12:17:51.230Z,61.71
2022-10-18T12:18:38.223Z,62.04
2022-10-18T12:19:36.220Z,60.75
2022-10-18T12:20:36.202Z,67.35
2022-10-18T12:21:36.192Z,63.16
2022-10-18T12:22:36.180Z,61.55
2022-10-18T12:23:36.160Z,61.55
2022-10-18T12:24:37.175Z,63.16
2022-10-18T12:25:36.149Z,62.52
2022-10-18T12:26:36.142Z,63.81
2022-10-18T12:27:36.134Z,63.81
2022-10-18T12:28:36.154Z,63.16
2022-10-18T12:29:36.122Z,65.10
2022-10-18T12:30:36.101Z,63.81
2022-10-18T12:31:36.093Z,64.45
2022-10-18T12:32:36.082Z,64.13
2022-10-18T12:33:36.118Z,61.87
2022-10-18T12:34:36.094Z,63.81
2022-10-18T12:35:36.066Z,65.10
2022-10-18T12:36:36.093Z,64.29
2022-10-18T12:37:36.250Z,63.97
2022-10-18T12:38:36.021Z,63.00
2022-10-18T12:39:43.635Z,63.16
2022-10-18T12:40:38.000Z,64.45
2022-10-18T12:41:35.991Z,64.13
2022-10-18T12:42:35.989Z,63.49
2022-10-18T12:43:35.973Z,63.97
2022-10-18T12:44:35.977Z,63.49
2022-10-18T12:45:35.956Z,63.81
2022-10-18T12:46:35.951Z,64.78
2022-10-18T12:47:36.028Z,63.33
2022-10-18T12:48:35.930Z,63.65
2022-10-18T12:49:36.737Z,64.13
2022-10-18T12:50:35.918Z,63.33
2022-10-18T12:51:35.909Z,63.49
2022-10-18T12:52:35.891Z,64.13
2022-10-18T12:53:35.878Z,63.00
2022-10-18T12:54:35.875Z,62.20
2022-10-18T12:55:35.887Z,63.81
2022-10-18T12:56:35.850Z,62.20